Time;durP1;ratioP1;P1;durP2;ratioP2;P2;SDS_P1;SDS_P2;PMS_P1;PMS_P2;Temp;Humidity;BMP_temperature;BMP_pressure;BME280_temperature;BME280_humidity;BME280_pressure;Samples;Min_cycle;Max_cycle;Signal;HPM_P1;HPM_P2
2022/07/14 06:05:48;;;;;;;;;;;;;;;29.49;73.28;98854.81;5564279;24;19972;-76
2022/07/14 06:08:16;;;;;;;;;;;;;;;29.29;74.48;98852.06;4811519;29;19961;-76
2022/07/14 06:10:43;;;;;;;;;;;;;;;29.01;76.94;98848.09;4811122;29;19957;-76
2022/07/14 06:13:11;;;;;;;;;;;;;;;29.08;77.53;98853.41;4811187;29;20381;-76
2022/07/14 06:15:41;;;;;;;;;;;;;;;29.11;77.05;98858.16;4810316;29;19983;-75
2022/07/14 06:18:09;;;;;;;;;;;;;;;29.19;77.12;98848.56;4810864;29;19964;-76
2022/07/14 06:20:36;;;;;;;;;;;;;;;29.22;76.16;98853.28;4810629;29;19954;-76
2022/07/14 06:23:04;;;;;;;;;;;;;;;29.32;76.40;98847.34;4811014;29;19952;-76
2022/07/14 06:25:33;;;;;;;;;;;;;;;29.39;76.10;98856.31;4810580;29;20063;-74
2022/07/14 06:28:00;;;;;;;;;;;;;;;29.42;76.13;98851.63;4810950;29;19960;-74
2022/07/14 06:30:28;;;;;;;;;;;;;;;29.26;77.15;98850.97;4810732;29;19951;-75
2022/07/14 06:32:57;;;;;;;;;;;;;;;29.24;77.21;98849.91;4810351;29;20361;-75
2022/07/14 06:35:24;;;;;;;;;;;;;;;29.29;77.56;98855.69;4810160;29;19953;-74
2022/07/14 06:37:52;;;;;;;;;;;;;;;29.30;76.01;98850.72;4809816;29;19963;-74
2022/07/14 06:40:21;;;;;;;;;;;;;;;29.42;75.55;98854.50;4810784;29;19957;-74
2022/07/14 06:42:49;;;;;;;;;;;;;;;29.47;73.32;98851.66;4810246;29;19957;-74
2022/07/14 06:45:36;;;;;;;;;;;;;;;29.42;73.16;98849.50;4810514;29;19953;-74
2022/07/14 06:48:03;;;;;;;;;;;;;;;29.44;72.46;98849.81;4812207;29;19952;-74
2022/07/14 06:50:32;;;;;;;;;;;;;;;29.33;71.99;98849.72;4813287;29;19962;-74
2022/07/14 06:52:59;;;;;;;;;;;;;;;29.49;72.05;98845.38;4829720;29;19954;-74
2022/07/14 06:55:26;;;;;;;;;;;;;;;29.40;70.89;98854.22;4829520;29;20255;-75
2022/07/14 06:57:53;;;;;;;;;;;;;;;29.50;71.11;98852.72;4830235;29;19975;-75
2022/07/14 07:00:24;;;;;;;;;;;;;;;29.68;70.44;98850.25;4830317;29;19950;-75
2022/07/14 07:02:52;;;;;;;;;;;;;;;29.53;70.91;98852.50;4830072;29;19960;-74
2022/07/14 07:08:05;;;;;;;;;;;;;;;29.46;72.10;98843.53;4829342;29;19960;-75
2022/07/14 07:10:32;;;;;;;;;;;;;;;29.65;72.07;98850.47;4829655;29;19950;-74
2022/07/14 07:13:00;;;;;;;;;;;;;;;29.80;72.70;98848.22;4830084;29;19958;-73
2022/07/14 07:15:27;;;;;;;;;;;;;;;29.84;72.71;98845.88;4829267;29;19953;-73
2022/07/14 07:17:54;;;;;;;;;;;;;;;29.75;72.88;98848.97;4826225;29;19973;-73
2022/07/14 07:20:21;;;;;;;;;;;;;;;29.76;73.88;98856.31;4813084;29;19956;-73
2022/07/14 07:22:49;;;;;;;;;;;;;;;29.91;71.88;98851.97;4822262;29;19952;-73
2022/07/14 07:25:16;;;;;;;;;;;;;;;30.04;71.73;98854.38;4823757;29;19957;-74
2022/07/14 07:27:43;;;;;;;;;;;;;;;30.05;70.69;98867.50;4829060;29;20272;-74
2022/07/14 07:30:11;;;;;;;;;;;;;;;30.10;70.46;98860.97;4829357;29;19963;-74
2022/07/14 07:32:38;;;;;;;;;;;;;;;29.98;71.16;98853.56;4829035;29;19960;-74
2022/07/14 07:35:05;;;;;;;;;;;;;;;30.10;70.39;98855.22;4828620;29;19958;-73
2022/07/14 07:37:33;;;;;;;;;;;;;;;30.23;69.79;98852.63;4828958;29;19973;-74
2022/07/14 07:40:00;;;;;;;;;;;;;;;30.05;69.82;98850.22;4829956;29;19957;-74
2022/07/14 07:42:28;;;;;;;;;;;;;;;30.04;67.68;98847.81;4829081;29;19953;-75
2022/07/14 07:44:57;;;;;;;;;;;;;;;29.89;66.63;98842.25;4829195;29;19951;-74
2022/07/14 07:47:24;;;;;;;;;;;;;;;29.87;69.22;98844.88;4829491;29;20329;-74
2022/07/14 07:49:52;;;;;;;;;;;;;;;29.90;69.71;98841.75;4830728;29;19952;-74
2022/07/14 07:52:20;;;;;;;;;;;;;;;29.71;64.25;98839.78;4829511;29;19949;-74
2022/07/14 07:54:48;;;;;;;;;;;;;;;29.94;68.60;98835.72;4828379;29;19947;-74
2022/07/14 07:57:33;;;;;;;;;;;;;;;29.48;69.90;98823.63;4828778;29;19976;-74
2022/07/14 08:00:00;;;;;;;;;;;;;;;29.82;68.92;98831.19;4827870;29;19975;-74
2022/07/14 08:02:27;;;;;;;;;;;;;;;29.96;68.63;98830.22;4829179;29;19953;-74
2022/07/14 08:04:55;;;;;;;;;;;;;;;30.16;67.52;98829.25;4828850;29;19960;-74
2022/07/14 08:07:22;;;;;;;;;;;;;;;30.32;66.62;98828.53;4829028;29;19984;-74
2022/07/14 08:09:50;;;;;;;;;;;;;;;30.36;64.62;98829.91;4828111;29;19952;-74
2022/07/14 08:12:19;;;;;;;;;;;;;;;30.37;66.04;98833.56;4828792;29;19947;-74
2022/07/14 08:14:49;;;;;;;;;;;;;;;30.33;69.04;98833.00;4818933;29;20243;-74
2022/07/14 08:17:18;;;;;;;;;;;;;;;30.42;66.03;98833.56;4826597;29;19971;-74
2022/07/14 08:19:46;;;;;;;;;;;;;;;30.49;63.30;98821.53;4829485;29;20238;-74
2022/07/14 08:22:14;;;;;;;;;;;;;;;30.45;69.14;98817.31;4828031;29;19961;-73
2022/07/14 08:24:42;;;;;;;;;;;;;;;30.32;66.20;98826.41;4828437;29;19946;-73
2022/07/14 08:27:09;;;;;;;;;;;;;;;30.20;70.51;98819.03;4827585;29;19948;-74
2022/07/14 08:29:36;;;;;;;;;;;;;;;30.32;63.90;98820.66;4828045;29;19959;-73
2022/07/14 08:32:05;;;;;;;;;;;;;;;30.45;67.92;98812.34;4828729;29;19955;-74
2022/07/14 08:34:32;;;;;;;;;;;;;;;30.55;66.79;98812.88;4828429;29;20337;-74
2022/07/14 08:36:59;;;;;;;;;;;;;;;30.38;63.22;98818.63;4827941;29;19959;-74
2022/07/14 08:39:27;;;;;;;;;;;;;;;30.28;64.26;98820.13;4828186;29;19952;-74
2022/07/14 08:41:54;;;;;;;;;;;;;;;30.44;65.05;98824.41;4819391;29;19966;-73
2022/07/14 08:44:22;;;;;;;;;;;;;;;30.45;61.34;98818.09;4824322;29;19953;-74
2022/07/14 08:46:50;;;;;;;;;;;;;;;30.41;70.38;98820.47;4827670;29;19980;-74
2022/07/14 08:49:18;;;;;;;;;;;;;;;30.43;63.12;98809.19;4826340;29;19955;-74
2022/07/14 08:51:51;;;;;;;;;;;;;;;30.24;60.96;98821.69;4827475;29;19965;-74
2022/07/14 08:54:19;;;;;;;;;;;;;;;30.54;61.32;98805.53;4828681;29;19960;-73
2022/07/14 08:56:46;;;;;;;;;;;;;;;30.58;68.75;98811.84;4813191;29;19960;-73
2022/07/14 08:59:13;;;;;;;;;;;;;;;30.49;61.70;98818.63;4829308;29;19966;-74
2022/07/14 09:01:43;;;;;;;;;;;;;;;30.42;60.37;98812.59;4831001;29;19952;-74
2022/07/14 09:04:10;;;;;;;;;;;;;;;30.44;66.09;98810.78;4814720;29;20343;-74
2022/07/14 09:06:54;;;;;;;;;;;;;;;30.51;60.23;98809.47;4820712;29;20003;-74
2022/07/14 09:09:26;;;;;;;;;;;;;;;30.32;57.96;98814.88;4826071;29;20247;-74
2022/07/14 09:11:55;;;;;;;;;;;;;;;30.00;56.03;98816.34;4826427;29;19950;-74
2022/07/14 09:14:25;;;;;;;;;;;;;;;30.26;58.94;98810.41;4828033;29;19956;-74
2022/07/14 09:16:53;;;;;;;;;;;;;;;30.32;60.58;98817.75;4828080;29;19958;-74
2022/07/14 09:19:20;;;;;;;;;;;;;;;30.47;61.76;98809.72;4827116;29;20432;-74
2022/07/14 09:21:58;;;;;;;;;;;;;;;30.40;56.47;98816.00;4811997;29;19956;-73
2022/07/14 09:24:26;;;;;;;;;;;;;;;30.12;59.04;98812.22;4827745;29;19967;-74
2022/07/14 09:26:56;;;;;;;;;;;;;;;30.36;61.45;98809.69;4824996;29;19953;-74
2022/07/14 09:29:27;;;;;;;;;;;;;;;30.45;58.53;98802.88;4808536;29;19956;-74
2022/07/14 09:32:03;;;;;;;;;;;;;;;30.29;54.15;98806.50;5119682;27;19947;-73
2022/07/14 09:34:31;;;;;;;;;;;;;;;30.45;55.03;98800.78;5094525;28;19950;-73
2022/07/14 09:37:14;;;;;;;;;;;;;;;30.42;55.22;98804.72;5093898;28;19959;-73
2022/07/14 09:39:54;;;;;;;;;;;;;;;30.35;57.80;98799.44;5093570;28;19953;-73
2022/07/14 09:42:41;;;;;;;;;;;;;;;30.29;57.15;98800.72;5092802;28;19953;-73
2022/07/14 09:45:09;;;;;;;;;;;;;;;30.28;56.53;98788.38;5092267;28;19945;-73
2022/07/14 09:47:55;;;;;;;;;;;;;;;30.27;54.45;98804.13;5092975;28;19951;-73
2022/07/14 09:50:40;;;;;;;;;;;;;;;30.10;54.49;98800.41;5092684;28;19968;-73
2022/07/14 09:53:13;;;;;;;;;;;;;;;30.28;54.17;98802.81;5093415;28;19948;-73
2022/07/14 09:55:43;;;;;;;;;;;;;;;30.41;57.03;98791.59;5093283;28;19953;-73
2022/07/14 09:58:11;;;;;;;;;;;;;;;30.48;59.57;98790.31;5089817;28;20335;-73
2022/07/14 10:00:39;;;;;;;;;;;;;;;30.63;50.51;98790.84;5073390;28;19947;-73
2022/07/14 10:03:07;;;;;;;;;;;;;;;30.67;54.35;98790.59;5089295;28;19948;-73
2022/07/14 10:05:35;;;;;;;;;;;;;;;30.80;61.64;98787.97;5093785;28;20366;-73
2022/07/14 10:08:03;;;;;;;;;;;;;;;30.55;52.99;98787.69;5094041;28;19947;-73
2022/07/14 10:10:32;;;;;;;;;;;;;;;30.50;54.46;98785.59;5092373;28;19971;-73
2022/07/14 10:12:59;;;;;;;;;;;;;;;30.56;56.84;98788.50;5088970;28;20350;-73
2022/07/14 10:15:29;;;;;;;;;;;;;;;30.83;54.17;98775.38;5090759;28;19946;-73
2022/07/14 10:17:57;;;;;;;;;;;;;;;30.89;51.77;98784.81;5080998;28;19955;-73
2022/07/14 10:20:24;;;;;;;;;;;;;;;31.04;54.75;98773.81;5083296;28;19956;-72
2022/07/14 10:22:53;;;;;;;;;;;;;;;30.99;52.49;98778.31;5115506;28;19943;-71
2022/07/14 10:25:21;;;;;;;;;;;;;;;30.94;51.73;98769.63;5083003;28;20240;-72
2022/07/14 10:27:48;;;;;;;;;;;;;;;30.84;53.97;98771.97;5082351;28;19947;-72
2022/07/14 10:30:15;;;;;;;;;;;;;;;30.73;51.64;98771.19;5084465;28;19972;-70
2022/07/14 10:32:46;;;;;;;;;;;;;;;30.73;51.68;98768.28;5093112;28;20251;-69
2022/07/14 10:35:14;;;;;;;;;;;;;;;30.82;51.50;98771.72;5092753;28;20277;-70
2022/07/14 10:37:54;;;;;;;;;;;;;;;30.84;53.76;98771.16;5093011;28;19956;-69
2022/07/14 10:40:33;;;;;;;;;;;;;;;30.97;55.22;98757.81;5092856;28;19946;-69
2022/07/14 10:43:04;;;;;;;;;;;;;;;31.00;53.24;98758.88;5081920;28;19955;-69
2022/07/14 10:45:47;;;;;;;;;;;;;;;30.95;50.65;98753.88;5079063;28;19952;-69
2022/07/14 10:48:34;;;;;;;;;;;;;;;31.11;53.61;98756.75;5063009;28;19980;-70
2022/07/14 10:51:14;;;;;;;;;;;;;;;31.23;54.49;98745.97;5066216;28;19980;-69
2022/07/14 10:53:59;;;;;;;;;;;;;;;31.31;54.04;98744.13;5068425;28;19954;-70
2022/07/14 10:56:47;;;;;;;;;;;;;;;31.36;53.70;98740.44;5067838;28;19959;-69
2022/07/14 10:59:26;;;;;;;;;;;;;;;31.39;51.06;98750.94;5078198;28;19952;-69
2022/07/14 11:02:14;;;;;;;;;;;;;;;31.54;52.55;98736.22;5077753;28;19955;-70
2022/07/14 11:05:18;;;;;;;;;;;;;;;31.66;50.92;98735.66;5067523;28;20247;-70
2022/07/14 11:08:02;;;;;;;;;;;;;;;31.81;51.74;98732.44;5078468;28;19945;-70
2022/07/14 11:10:30;;;;;;;;;;;;;;;31.82;54.64;98731.88;5069287;28;20273;-70
2022/07/14 11:13:04;;;;;;;;;;;;;;;31.82;50.85;98728.19;5078390;28;19957;-70
2022/07/14 11:15:38;;;;;;;;;;;;;;;31.78;54.50;98733.50;5064673;28;19955;-71
2022/07/14 11:18:17;;;;;;;;;;;;;;;31.73;52.43;98729.31;5077608;28;19977;-70
2022/07/14 11:20:49;;;;;;;;;;;;;;;31.61;49.83;98730.66;5078002;28;19957;-71
2022/07/14 11:23:21;;;;;;;;;;;;;;;31.52;52.37;98730.94;5078142;28;19954;-70
2022/07/14 11:25:49;;;;;;;;;;;;;;;31.53;51.04;98723.84;5078877;28;20333;-70
2022/07/14 11:28:32;;;;;;;;;;;;;;;31.30;51.71;98718.66;5078775;28;19944;-70
2022/07/14 11:31:18;;;;;;;;;;;;;;;31.46;53.27;98712.84;5078510;28;20343;-70
2022/07/14 11:36:59;;;;;;;;;;;;;;;31.61;55.50;98703.84;5078276;28;20202;-70
2022/07/14 11:39:44;;;;;;;;;;;;;;;31.75;51.25;98711.41;5077109;28;19951;-70
2022/07/14 11:42:13;;;;;;;;;;;;;;;31.94;46.36;98702.94;5078136;28;19955;-69
2022/07/14 11:44:40;;;;;;;;;;;;;;;31.97;48.21;98704.72;5077638;28;20472;-69
2022/07/14 11:47:13;;;;;;;;;;;;;;;31.86;50.81;98702.69;5078261;28;19953;-70
2022/07/14 11:49:41;;;;;;;;;;;;;;;31.65;53.03;98701.47;5078168;28;19954;-70
2022/07/14 11:52:09;;;;;;;;;;;;;;;31.84;49.07;98702.41;5071529;28;20220;-69
2022/07/14 11:54:36;;;;;;;;;;;;;;;31.81;53.35;98691.94;5073480;28;19951;-70
2022/07/14 11:57:06;;;;;;;;;;;;;;;31.76;48.95;98699.31;5066499;28;19950;-70
2022/07/14 11:59:33;;;;;;;;;;;;;;;31.64;50.48;98692.00;5063501;28;20338;-69
2022/07/14 12:02:07;;;;;;;;;;;;;;;31.59;50.02;98686.25;5076457;28;19949;-70
2022/07/14 12:04:34;;;;;;;;;;;;;;;31.70;47.77;98684.09;5073291;28;19953;-70
2022/07/14 12:07:02;;;;;;;;;;;;;;;31.66;49.09;98674.13;5077168;28;19943;-70
2022/07/14 12:09:30;;;;;;;;;;;;;;;31.70;52.70;98680.41;5077740;28;19954;-70
2022/07/14 12:12:01;;;;;;;;;;;;;;;31.52;50.42;98678.91;5078041;28;19968;-69
2022/07/14 12:14:28;;;;;;;;;;;;;;;31.62;50.00;98674.41;5068789;28;20235;-70
2022/07/14 12:16:56;;;;;;;;;;;;;;;31.59;51.72;98669.69;5068340;28;19951;-70
2022/07/14 12:19:30;;;;;;;;;;;;;;;31.53;53.29;98674.72;5066563;28;19950;-70
2022/07/14 12:22:01;;;;;;;;;;;;;;;31.67;55.46;98667.81;5065133;28;20235;-71
2022/07/14 12:24:28;;;;;;;;;;;;;;;31.71;49.56;98671.22;5071839;28;19956;-70
2022/07/14 12:26:57;;;;;;;;;;;;;;;31.63;54.24;98673.09;5076122;28;19951;-70
2022/07/14 12:29:24;;;;;;;;;;;;;;;31.69;52.55;98659.38;5073662;28;19947;-70
2022/07/14 12:31:52;;;;;;;;;;;;;;;31.81;51.41;98668.81;5072938;28;20347;-70
2022/07/14 12:34:20;;;;;;;;;;;;;;;31.87;57.28;98654.28;5076859;28;20335;-70
2022/07/14 12:36:48;;;;;;;;;;;;;;;31.87;50.93;98671.66;5064384;28;20371;-70
2022/07/14 12:39:16;;;;;;;;;;;;;;;31.82;50.77;98656.69;5070769;28;20022;-71
2022/07/14 12:41:45;;;;;;;;;;;;;;;31.86;50.93;98649.84;5079009;28;19949;-71
2022/07/14 12:44:12;;;;;;;;;;;;;;;31.88;51.23;98650.88;5076607;28;19951;-70
2022/07/14 12:46:40;;;;;;;;;;;;;;;31.84;49.24;98644.56;5073464;28;19985;-70
2022/07/14 12:49:09;;;;;;;;;;;;;;;31.87;50.68;98645.59;5083598;28;20386;-70
2022/07/14 12:51:40;;;;;;;;;;;;;;;31.78;47.61;98661.97;5076940;28;19963;-70
2022/07/14 12:54:08;;;;;;;;;;;;;;;31.79;49.75;98643.28;5076851;28;20324;-71
2022/07/14 12:56:42;;;;;;;;;;;;;;;32.00;48.03;98637.16;5076499;28;20335;-71
2022/07/14 12:59:11;;;;;;;;;;;;;;;31.82;49.98;98635.66;5076411;28;20233;-71
2022/07/14 13:01:48;;;;;;;;;;;;;;;31.90;52.82;98630.88;5077061;28;20357;-71
2022/07/14 13:04:29;;;;;;;;;;;;;;;31.90;51.85;98624.31;5076955;28;19953;-71
2022/07/14 13:07:03;;;;;;;;;;;;;;;31.92;54.93;98630.31;5075302;28;19959;-71
2022/07/14 13:09:30;;;;;;;;;;;;;;;31.90;50.34;98625.09;5076641;28;19947;-71
2022/07/14 13:11:58;;;;;;;;;;;;;;;31.83;54.56;98619.88;5076759;28;19967;-72
2022/07/14 13:14:25;;;;;;;;;;;;;;;31.81;49.57;98620.41;5067734;28;19953;-71
2022/07/14 13:16:52;;;;;;;;;;;;;;;31.96;53.97;98614.25;5055558;28;19950;-72
2022/07/14 13:19:21;;;;;;;;;;;;;;;31.96;50.84;98616.38;5056678;28;19948;-72
2022/07/14 13:21:53;;;;;;;;;;;;;;;32.00;49.74;98608.22;5068678;28;20367;-72
2022/07/14 13:24:24;;;;;;;;;;;;;;;32.06;49.87;98611.88;5076196;28;19948;-72
2022/07/14 13:27:00;;;;;;;;;;;;;;;32.11;53.92;98599.47;5076059;28;19946;-72
2022/07/14 13:29:27;;;;;;;;;;;;;;;32.11;52.92;98596.59;5075841;28;19945;-72
2022/07/14 13:31:55;;;;;;;;;;;;;;;32.01;50.96;98598.22;5076678;28;19996;-72
2022/07/14 13:34:22;;;;;;;;;;;;;;;31.96;51.03;98599.78;5074394;28;19957;-72
2022/07/14 13:36:51;;;;;;;;;;;;;;;31.84;49.82;98596.19;5066017;28;19957;-72
2022/07/14 13:39:19;;;;;;;;;;;;;;;31.83;49.76;98582.28;5070205;28;19952;-72
2022/07/14 13:41:49;;;;;;;;;;;;;;;31.91;52.42;98585.38;5076142;28;19949;-72
2022/07/14 13:44:17;;;;;;;;;;;;;;;31.84;53.10;98581.72;5075408;28;19952;-72
2022/07/14 13:46:45;;;;;;;;;;;;;;;31.93;51.96;98577.75;5075548;28;19951;-72
2022/07/14 13:49:16;;;;;;;;;;;;;;;32.00;49.57;98585.88;5075159;28;20243;-72
2022/07/14 13:54:29;;;;;;;;;;;;;;;31.94;49.60;98578.53;5074321;28;20006;-72
2022/07/14 13:56:57;;;;;;;;;;;;;;;31.97;50.07;98581.13;5082095;28;19947;-72
2022/07/14 13:59:24;;;;;;;;;;;;;;;31.93;48.78;98585.63;5077423;28;19949;-72
2022/07/14 14:01:51;;;;;;;;;;;;;;;32.05;47.80;98575.56;5070683;28;19960;-72
2022/07/14 14:04:19;;;;;;;;;;;;;;;32.16;46.88;98582.06;5070017;28;19955;-72
2022/07/14 14:06:47;;;;;;;;;;;;;;;32.15;48.55;98573.91;5097623;28;19946;-72
2022/07/14 14:09:16;;;;;;;;;;;;;;;32.15;51.37;98562.34;5070708;28;20221;-72
2022/07/14 14:11:43;;;;;;;;;;;;;;;32.11;51.87;98577.09;5075703;28;19949;-72
2022/07/14 14:14:11;;;;;;;;;;;;;;;32.18;55.35;98564.16;5060156;28;19951;-72
2022/07/14 14:16:39;;;;;;;;;;;;;;;32.10;52.52;98563.97;5066393;28;19957;-72
2022/07/14 14:19:11;;;;;;;;;;;;;;;31.97;50.61;98551.41;5072168;28;19953;-72
2022/07/14 14:21:38;;;;;;;;;;;;;;;31.83;51.53;98556.25;5060602;28;19951;-72
2022/07/14 14:24:08;;;;;;;;;;;;;;;31.92;49.53;98552.22;5077396;28;19985;-72
2022/07/14 14:26:35;;;;;;;;;;;;;;;31.98;51.69;98542.22;5079680;28;20685;-72
2022/07/14 14:29:02;;;;;;;;;;;;;;;32.01;48.89;98541.13;5075609;28;19957;-72
2022/07/14 14:31:30;;;;;;;;;;;;;;;31.94;51.12;98538.78;5076268;28;19974;-71
2022/07/14 14:33:57;;;;;;;;;;;;;;;31.98;51.17;98541.44;5078726;28;19973;-71
2022/07/14 14:36:25;;;;;;;;;;;;;;;31.99;51.34;98538.00;5078655;28;20388;-72
2022/07/14 14:38:52;;;;;;;;;;;;;;;31.98;55.92;98532.75;5078352;28;19975;-72
2022/07/14 14:41:22;;;;;;;;;;;;;;;31.92;50.94;98524.09;5078580;28;19954;-72
2022/07/14 14:43:49;;;;;;;;;;;;;;;31.92;50.36;98529.09;5083125;28;19950;-72
2022/07/14 14:46:17;;;;;;;;;;;;;;;31.96;51.53;98527.47;5083026;28;20245;-71
2022/07/14 14:48:44;;;;;;;;;;;;;;;31.84;54.74;98518.09;5088032;28;19948;-72
2022/07/14 14:51:11;;;;;;;;;;;;;;;31.75;50.33;98529.22;5079205;28;19957;-71
2022/07/14 14:53:38;;;;;;;;;;;;;;;31.73;50.37;98508.72;5079090;28;19995;-71
2022/07/14 14:56:06;;;;;;;;;;;;;;;31.71;52.27;98509.28;5078533;28;20023;-71
2022/07/14 14:58:33;;;;;;;;;;;;;;;31.74;51.26;98513.97;5078409;28;20356;-71
2022/07/14 15:01:00;;;;;;;;;;;;;;;31.77;51.73;98507.13;5078911;28;19945;-71
2022/07/14 15:03:28;;;;;;;;;;;;;;;31.79;51.91;98501.56;5086834;28;19971;-71
2022/07/14 15:05:55;;;;;;;;;;;;;;;31.71;52.13;98500.59;5079067;28;20234;-71
2022/07/14 15:08:22;;;;;;;;;;;;;;;31.73;51.39;98497.97;5075113;28;19948;-71
2022/07/14 15:10:49;;;;;;;;;;;;;;;31.79;53.70;98495.78;5078842;28;19950;-72
2022/07/14 15:13:17;;;;;;;;;;;;;;;31.80;53.58;98496.59;5079344;28;19966;-71
2022/07/14 15:15:44;;;;;;;;;;;;;;;31.80;53.80;98494.47;5070074;28;19949;-71
2022/07/14 15:18:12;;;;;;;;;;;;;;;31.88;54.63;98485.22;5077453;28;19952;-72
2022/07/14 15:20:39;;;;;;;;;;;;;;;31.83;54.88;98487.63;5084707;28;19951;-72
2022/07/14 15:23:06;;;;;;;;;;;;;;;31.84;52.41;98477.59;5077992;28;20228;-71
2022/07/14 15:25:34;;;;;;;;;;;;;;;31.87;50.18;98483.63;5078419;28;19954;-72
2022/07/14 15:28:01;;;;;;;;;;;;;;;31.88;52.16;98471.53;5078210;28;19983;-72
2022/07/14 15:30:29;;;;;;;;;;;;;;;31.87;51.96;98472.84;5078250;28;19977;-72
2022/07/14 15:32:56;;;;;;;;;;;;;;;31.89;56.12;98478.88;5065162;28;19972;-71
2022/07/14 15:35:23;;;;;;;;;;;;;;;31.83;50.96;98470.28;5078198;28;19948;-71
2022/07/14 15:37:51;;;;;;;;;;;;;;;31.83;50.85;98467.38;5077869;28;19962;-71
2022/07/14 15:43:03;;;;;;;;;;;;;;;31.79;52.16;98452.41;5077933;28;19949;-72
2022/07/14 15:45:31;;;;;;;;;;;;;;;31.84;52.49;98451.56;5088368;28;20248;-72
2022/07/14 15:47:59;;;;;;;;;;;;;;;31.78;53.41;98445.06;5096377;28;19954;-71
2022/07/14 15:50:27;;;;;;;;;;;;;;;31.58;52.37;98445.50;5092472;28;19944;-72
2022/07/14 15:52:54;;;;;;;;;;;;;;;31.65;51.67;98441.22;5092865;28;19960;-70
2022/07/14 15:55:22;;;;;;;;;;;;;;;31.65;51.92;98438.34;5090807;28;20200;-71
2022/07/14 15:57:50;;;;;;;;;;;;;;;31.72;50.52;98440.63;5088901;28;19954;-71
2022/07/14 16:00:17;;;;;;;;;;;;;;;31.74;51.02;98444.56;5077745;28;19950;-71
2022/07/14 16:02:44;;;;;;;;;;;;;;;31.73;51.37;98440.13;5077818;28;19950;-72
2022/07/14 16:05:12;;;;;;;;;;;;;;;31.71;53.08;98427.53;5077453;28;20258;-72
2022/07/14 16:07:39;;;;;;;;;;;;;;;31.62;54.36;98431.53;5085188;28;19955;-72
2022/07/14 16:10:07;;;;;;;;;;;;;;;31.62;53.47;98419.19;5079471;28;20246;-72
2022/07/14 16:12:35;;;;;;;;;;;;;;;31.60;52.76;98428.41;5074578;28;20251;-72
2022/07/14 16:15:03;;;;;;;;;;;;;;;31.52;53.17;98412.94;5074643;28;19948;-72
2022/07/14 16:17:30;;;;;;;;;;;;;;;31.52;54.06;98410.06;5083350;28;19946;-72
2022/07/14 16:19:58;;;;;;;;;;;;;;;31.43;55.00;98413.25;5084839;28;20375;-72
2022/07/14 16:22:25;;;;;;;;;;;;;;;31.43;54.88;98409.56;5091565;28;19947;-72
2022/07/14 16:24:52;;;;;;;;;;;;;;;31.37;55.84;98405.97;5066459;28;19955;-72
2022/07/14 16:27:19;;;;;;;;;;;;;;;31.33;56.71;98405.44;5076208;28;20248;-72
2022/07/14 16:29:47;;;;;;;;;;;;;;;31.33;53.78;98399.66;5076601;28;19960;-72
2022/07/14 16:32:14;;;;;;;;;;;;;;;31.32;53.33;98398.13;5091165;28;19947;-72
2022/07/14 16:34:41;;;;;;;;;;;;;;;31.32;54.32;98396.03;5093774;28;19973;-72
2022/07/14 16:37:10;;;;;;;;;;;;;;;31.33;55.12;98394.69;5084268;28;19955;-72
2022/07/14 16:39:38;;;;;;;;;;;;;;;31.30;55.53;98392.09;5077085;28;19954;-72
2022/07/14 16:42:06;;;;;;;;;;;;;;;31.26;57.71;98385.81;5076636;28;20330;-72
2022/07/14 16:44:35;;;;;;;;;;;;;;;31.15;54.86;98387.44;5091711;28;19947;-70
2022/07/14 16:47:03;;;;;;;;;;;;;;;31.10;55.48;98388.31;5084438;28;19947;-72
2022/07/14 16:49:31;;;;;;;;;;;;;;;31.12;56.31;98384.88;5076788;28;19950;-71
2022/07/14 16:51:58;;;;;;;;;;;;;;;31.20;52.32;98389.50;5080663;28;19949;-72
2022/07/14 16:54:26;;;;;;;;;;;;;;;31.17;53.16;98389.81;5092107;28;19968;-71
2022/07/14 16:56:53;;;;;;;;;;;;;;;31.11;56.33;98389.84;5085613;28;19954;-71
2022/07/14 16:59:21;;;;;;;;;;;;;;;31.06;59.65;98384.91;5064774;28;20383;-70
2022/07/14 17:01:48;;;;;;;;;;;;;;;30.95;60.41;98378.41;5083911;28;19946;-70
2022/07/14 17:04:16;;;;;;;;;;;;;;;30.89;57.13;98374.72;5080813;28;19984;-70
2022/07/14 17:06:45;;;;;;;;;;;;;;;30.87;58.29;98381.06;5087394;28;19948;-71
2022/07/14 17:09:13;;;;;;;;;;;;;;;30.87;58.68;98383.16;5073975;28;19959;-71
2022/07/14 17:11:40;;;;;;;;;;;;;;;30.85;58.86;98382.91;5069762;28;19949;-71
2022/07/14 17:14:08;;;;;;;;;;;;;;;30.84;57.75;98384.22;5083517;28;19967;-71
2022/07/14 17:16:35;;;;;;;;;;;;;;;30.83;60.74;98392.13;5078116;28;20383;-76
2022/07/14 17:19:19;;;;;;;;;;;;;;;30.79;58.95;98379.28;5066724;28;19949;-70
2022/07/14 17:21:47;;;;;;;;;;;;;;;30.75;56.92;98381.66;5084248;28;19946;-71
2022/07/14 17:24:15;;;;;;;;;;;;;;;30.71;59.64;98384.03;5065031;28;20378;-71
2022/07/14 17:26:42;;;;;;;;;;;;;;;30.65;61.40;98384.06;5070691;28;19955;-71
2022/07/14 17:29:10;;;;;;;;;;;;;;;30.60;62.54;98376.22;5079362;28;19948;-71
2022/07/14 17:31:37;;;;;;;;;;;;;;;30.52;65.71;98378.06;5068224;28;19975;-71
2022/07/14 17:34:04;;;;;;;;;;;;;;;30.44;65.24;98379.97;5067670;28;20355;-71
2022/07/14 17:36:32;;;;;;;;;;;;;;;30.36;65.61;98382.63;5083169;28;20330;-71
2022/07/14 17:39:01;;;;;;;;;;;;;;;30.32;66.33;98387.84;5058871;28;19949;-71
2022/07/14 17:41:28;;;;;;;;;;;;;;;30.24;64.59;98389.72;5068579;28;19950;-71
2022/07/14 17:43:56;;;;;;;;;;;;;;;30.17;64.32;98384.50;5067523;28;20024;-71
2022/07/14 17:46:23;;;;;;;;;;;;;;;30.08;67.53;98381.88;5067619;28;19949;-70
2022/07/14 17:48:51;;;;;;;;;;;;;;;30.02;66.37;98392.66;5070355;28;19949;-70
2022/07/14 17:54:04;;;;;;;;;;;;;;;29.91;67.41;98390.59;5086746;28;20240;-70
2022/07/14 17:56:48;;;;;;;;;;;;;;;29.87;68.10;98389.28;5073949;28;20020;-70
2022/07/14 17:59:15;;;;;;;;;;;;;;;29.85;67.50;98386.16;5075145;28;19951;-70
2022/07/14 18:01:42;;;;;;;;;;;;;;;29.85;68.51;98389.03;5074359;28;19947;-71
2022/07/14 18:04:10;;;;;;;;;;;;;;;29.84;70.48;98394.00;5074362;28;19948;-70
2022/07/14 18:06:40;;;;;;;;;;;;;;;29.85;70.31;98391.91;5067037;28;19962;-71
2022/07/14 18:09:07;;;;;;;;;;;;;;;29.80;72.99;98395.59;5076915;28;19953;-71
2022/07/14 18:11:34;;;;;;;;;;;;;;;29.75;74.21;98390.59;5063591;28;19940;-71
2022/07/14 18:14:02;;;;;;;;;;;;;;;29.63;76.59;98394.78;5072820;28;19977;-71
2022/07/14 18:16:29;;;;;;;;;;;;;;;29.53;78.25;98381.94;5078291;28;19948;-71
2022/07/14 18:18:56;;;;;;;;;;;;;;;29.44;77.03;98388.00;5065911;28;19950;-70
2022/07/14 18:21:23;;;;;;;;;;;;;;;29.40;77.42;98384.56;5072213;28;19952;-71
2022/07/14 18:23:51;;;;;;;;;;;;;;;29.33;78.24;98388.75;5070175;28;19955;-71
2022/07/14 18:26:18;;;;;;;;;;;;;;;29.25;80.66;98382.72;5086570;28;19978;-71
2022/07/14 18:28:45;;;;;;;;;;;;;;;29.27;77.31;98382.22;5085461;28;19948;-71
2022/07/14 18:31:13;;;;;;;;;;;;;;;29.21;78.36;98378.53;5091260;28;19976;-71
2022/07/14 18:33:40;;;;;;;;;;;;;;;29.17;78.98;98390.28;5080154;28;19952;-71
2022/07/14 18:36:08;;;;;;;;;;;;;;;29.11;80.43;98380.06;5062148;28;19956;-71
2022/07/14 18:38:35;;;;;;;;;;;;;;;29.04;81.44;98380.59;5069624;28;19975;-71
2022/07/14 18:41:02;;;;;;;;;;;;;;;28.97;81.98;98378.22;5074943;28;19954;-71
2022/07/14 18:43:30;;;;;;;;;;;;;;;29.03;80.80;98379.81;5074300;28;19947;-71
2022/07/14 18:46:15;;;;;;;;;;;;;;;28.91;81.67;98386.06;5078170;28;19955;-72
2022/07/14 18:48:49;;;;;;;;;;;;;;;28.81;84.40;98385.50;5075170;28;19944;-71
2022/07/14 18:51:17;;;;;;;;;;;;;;;28.64;86.02;98391.22;5072125;28;20351;-71
2022/07/14 18:54:09;;;;;;;;;;;;;;;28.53;86.66;98393.25;5443484;22;19954;31
2022/07/14 18:56:36;;;;;;;;;;;;;;;28.41;87.29;98403.94;4924224;29;20344;-71
2022/07/14 18:59:03;;;;;;;;;;;;;;;28.31;86.75;98410.41;4930229;29;19961;-70
2022/07/14 19:01:31;;;;;;;;;;;;;;;28.19;88.17;98403.81;4924952;29;19954;-71
2022/07/14 19:03:59;;;;;;;;;;;;;;;28.13;87.56;98402.22;4921106;29;19954;-70
2022/07/14 19:06:26;;;;;;;;;;;;;;;28.08;87.91;98397.22;4925388;29;19961;-70
2022/07/14 19:08:53;;;;;;;;;;;;;;;28.02;88.20;98400.84;4922478;29;19961;-71
2022/07/14 19:11:20;;;;;;;;;;;;;;;27.96;88.43;98402.09;4930375;29;19959;-70
2022/07/14 19:13:48;;;;;;;;;;;;;;;27.89;87.96;98402.56;4927178;29;20353;-69
2022/07/14 19:16:15;;;;;;;;;;;;;;;27.92;88.55;98405.22;4922912;29;19950;-70
2022/07/14 19:18:47;;;;;;;;;;;;;;;27.88;87.58;98413.28;4920632;29;19956;-70